Rechercher aéroport 
image banner adimage banner adimage banner ad
image banner ad

KTLR - Mefford Field

Situé à Tulare, United States

ICAO - TLR, IATA -

Données fournies par Airmate  

Information générale

Coordonnées: N36°9'24" W119°19'36"
Élévation : 265 feet MSL.
Variation magnétique : 12° East
Voir autres Aéroports à California

Données opérationnelles

Special qualification required
Heure actuelle UTC:
Heure actuelle locale:
Météo à : KVIS - Visalia Muni ( 19 km )
METAR: KVIS 262256Z AUTO 20007KT 10SM CLR 35/10 A2987 RMK AO2 SLP115 T03500100
TAF: KVIS 261720Z 2618/2718 VRB03KT P6SM SCT150 BKN200 FM262300 VRB04KT P6SM BKN100 FM271000 VRB03KT P6SM SCT200
Voir NOTAMs / SUP AIP / TFR affectant cet aéroport [VIEW]
Fréquences de communication: [VIEW]

Pistes:

Identifiant RWYQFULongueur (ft)Largeur (ft)SurfaceLDA (ft)
13147°390175ASPH
31327°390175ASPH

Coordonnées de l'aéroport

Adresse: Tulare United States

Vue satellite de KTLR